Brackettville, Texas
Current Conditions -  °F | °C
As of 8:08 AM on Tuesday 21 Oct 2014 (Local Time) from KDLF Reporting Station
Overcast Overcast  
Wind Chill: 66°   Ceiling: 3800
Heat Index: 66°   Visibility: 10mi
Dew Point: 61°   Wind: 5mph
Humidity: 83%   Direction: 80°E
Pressure: 30.05"   Gusts: NA
Location:  29.31°N, 100.42°W
Report Text: KDLF 211308Z AUTO 08004KT 10SM SCT012 BKN038 OVC050 19/16 A3005 RMK AO2 $
Loading
Personal Weather Stations






























Interactive Weather Map
Tropical Storm Tracking
New forecast layout! Learn more

10-Day Weather Forecast

Advertisements
Track Severe Weather on mobile